sensor_id;sensor_type;location;lat;lon;timestamp;temperature;humidity
10433;DHT22;5263;48.680;9.004;2024-03-23T00:54:21;8.10;99.90
10433;DHT22;5263;48.680;9.004;2024-03-23T00:56:47;8.00;99.90
10433;DHT22;5263;48.680;9.004;2024-03-23T00:59:12;8.10;99.90
10433;DHT22;5263;48.680;9.004;2024-03-23T01:01:39;8.10;99.90
10433;DHT22;5263;48.680;9.004;2024-03-23T01:04:04;8.10;99.90
10433;DHT22;5263;48.680;9.004;2024-03-23T01:06:30;8.20;99.90
10433;DHT22;5263;48.680;9.004;2024-03-23T01:08:55;8.10;99.90
10433;DHT22;5263;48.680;9.004;2024-03-23T01:11:21;8.10;99.90
10433;DHT22;5263;48.680;9.004;2024-03-23T01:13:46;8.20;99.90
10433;DHT22;5263;48.680;9.004;2024-03-23T01:16:12;8.20;99.90
10433;DHT22;5263;48.680;9.004;2024-03-23T01:18:37;8.20;99.90
10433;DHT22;5263;48.680;9.004;2024-03-23T01:21:03;7.90;99.90
10433;DHT22;5263;48.680;9.004;2024-03-23T01:23:29;7.90;99.90
10433;DHT22;5263;48.680;9.004;2024-03-23T01:25:55;7.80;99.90
10433;DHT22;5263;48.680;9.004;2024-03-23T01:28:21;7.80;99.90
10433;DHT22;5263;48.680;9.004;2024-03-23T01:30:47;7.70;99.90
10433;DHT22;5263;48.680;9.004;2024-03-23T01:33:13;7.60;99.90
10433;DHT22;5263;48.680;9.004;2024-03-23T01:35:38;7.50;99.90
10433;DHT22;5263;48.680;9.004;2024-03-23T01:38:04;7.80;99.90
10433;DHT22;5263;48.680;9.004;2024-03-23T01:40:30;7.70;99.90
10433;DHT22;5263;48.680;9.004;2024-03-23T01:43:03;7.70;99.90
10433;DHT22;5263;48.680;9.004;2024-03-23T01:45:29;7.60;99.90
10433;DHT22;5263;48.680;9.004;2024-03-23T01:47:55;7.50;99.90
10433;DHT22;5263;48.680;9.004;2024-03-23T01:50:21;7.60;99.90
10433;DHT22;5263;48.680;9.004;2024-03-23T01:52:47;7.40;99.90
10433;DHT22;5263;48.680;9.004;2024-03-23T01:55:13;7.60;99.90
10433;DHT22;5263;48.680;9.004;2024-03-23T01:57:39;7.50;99.90
10433;DHT22;5263;48.680;9.004;2024-03-23T02:00:05;7.70;99.90
10433;DHT22;5263;48.680;9.004;2024-03-23T02:02:31;8.10;99.90
10433;DHT22;5263;48.680;9.004;2024-03-23T02:04:57;8.50;99.90
10433;DHT22;5263;48.680;9.004;2024-03-23T02:07:23;9.00;99.90
10433;DHT22;5263;48.680;9.004;2024-03-23T02:09:53;9.10;99.90
10433;DHT22;5263;48.680;9.004;2024-03-23T02:12:19;9.40;99.90
10433;DHT22;5263;48.680;9.004;2024-03-23T02:14:45;9.50;99.90
10433;DHT22;5263;48.680;9.004;2024-03-23T02:17:10;9.70;99.90
10433;DHT22;5263;48.680;9.004;2024-03-23T02:19:36;9.80;99.90
10433;DHT22;5263;48.680;9.004;2024-03-23T02:22:01;10.00;99.90
10433;DHT22;5263;48.680;9.004;2024-03-23T02:24:29;10.20;99.90
10433;DHT22;5263;48.680;9.004;2024-03-23T02:26:54;10.30;99.90
10433;DHT22;5263;48.680;9.004;2024-03-23T02:29:20;10.40;99.90
10433;DHT22;5263;48.680;9.004;2024-03-23T02:31:46;10.50;99.90
10433;DHT22;5263;48.680;9.004;2024-03-23T02:34:11;10.50;99.90
10433;DHT22;5263;48.680;9.004;2024-03-23T02:36:37;10.50;99.90
10433;DHT22;5263;48.680;9.004;2024-03-23T02:39:02;10.40;99.90
10433;DHT22;5263;48.680;9.004;2024-03-23T02:41:28;10.40;99.90
10433;DHT22;5263;48.680;9.004;2024-03-23T02:43:54;10.40;99.90
10433;DHT22;5263;48.680;9.004;2024-03-23T02:46:19;10.40;99.90
10433;DHT22;5263;48.680;9.004;2024-03-23T02:48:45;10.40;99.90
10433;DHT22;5263;48.680;9.004;2024-03-23T02:51:10;10.40;99.90
10433;DHT22;5263;48.680;9.004;2024-03-23T02:53:36;10.50;99.90
10433;DHT22;5263;48.680;9.004;2024-03-23T02:56:01;10.50;99.90
10433;DHT22;5263;48.680;9.004;2024-03-23T02:58:27;10.50;99.90
10433;DHT22;5263;48.680;9.004;2024-03-23T03:00:52;10.30;99.90
10433;DHT22;5263;48.680;9.004;2024-03-23T03:03:18;10.30;99.90
10433;DHT22;5263;48.680;9.004;2024-03-23T03:05:43;10.30;99.90
10433;DHT22;5263;48.680;9.004;2024-03-23T03:08:09;10.20;99.90
10433;DHT22;5263;48.680;9.004;2024-03-23T03:10:35;10.20;99.90
10433;DHT22;5263;48.680;9.004;2024-03-23T03:13:02;10.10;99.90
10433;DHT22;5263;48.680;9.004;2024-03-23T03:15:27;10.00;99.90
10433;DHT22;5263;48.680;9.004;2024-03-23T03:17:53;10.00;99.90
10433;DHT22;5263;48.680;9.004;2024-03-23T03:20:18;10.00;99.90
10433;DHT22;5263;48.680;9.004;2024-03-23T03:22:44;10.00;99.90
10433;DHT22;5263;48.680;9.004;2024-03-23T03:25:10;10.00;99.90
10433;DHT22;5263;48.680;9.004;2024-03-23T03:27:35;10.20;99.90
10433;DHT22;5263;48.680;9.004;2024-03-23T03:30:01;10.20;99.90
10433;DHT22;5263;48.680;9.004;2024-03-23T03:32:30;10.10;99.90
10433;DHT22;5263;48.680;9.004;2024-03-23T03:34:56;10.10;99.90
10433;DHT22;5263;48.680;9.004;2024-03-23T03:37:22;10.10;99.90
10433;DHT22;5263;48.680;9.004;2024-03-23T03:39:47;10.10;99.90
10433;DHT22;5263;48.680;9.004;2024-03-23T03:42:13;10.10;99.90
10433;DHT22;5263;48.680;9.004;2024-03-23T03:44:38;10.20;99.90
10433;DHT22;5263;48.680;9.004;2024-03-23T03:47:05;10.30;99.90
10433;DHT22;5263;48.680;9.004;2024-03-23T03:49:31;10.30;99.90
10433;DHT22;5263;48.680;9.004;2024-03-23T03:51:56;10.30;99.90
10433;DHT22;5263;48.680;9.004;2024-03-23T03:54:22;10.20;99.90
10433;DHT22;5263;48.680;9.004;2024-03-23T03:56:47;10.20;99.90
10433;DHT22;5263;48.680;9.004;2024-03-23T03:59:13;10.20;99.90
10433;DHT22;5263;48.680;9.004;2024-03-23T04:01:39;10.20;99.90
10433;DHT22;5263;48.680;9.004;2024-03-23T04:04:05;10.20;99.90
10433;DHT22;5263;48.680;9.004;2024-03-23T04:06:31;10.20;99.90
10433;DHT22;5263;48.680;9.004;2024-03-23T04:08:58;10.30;99.90
10433;DHT22;5263;48.680;9.004;2024-03-23T04:11:24;10.30;99.90
10433;DHT22;5263;48.680;9.004;2024-03-23T04:13:49;10.20;99.90
10433;DHT22;5263;48.680;9.004;2024-03-23T04:16:26;10.20;99.90
10433;DHT22;5263;48.680;9.004;2024-03-23T04:18:51;10.20;99.90
10433;DHT22;5263;48.680;9.004;2024-03-23T04:21:17;10.20;99.90
10433;DHT22;5263;48.680;9.004;2024-03-23T04:23:42;10.20;99.90
10433;DHT22;5263;48.680;9.004;2024-03-23T04:26:08;10.10;99.90
10433;DHT22;5263;48.680;9.004;2024-03-23T04:28:34;10.00;99.90
10433;DHT22;5263;48.680;9.004;2024-03-23T04:31:03;9.80;99.90
10433;DHT22;5263;48.680;9.004;2024-03-23T04:33:29;9.90;99.90
10433;DHT22;5263;48.680;9.004;2024-03-23T04:35:54;9.90;99.90
10433;DHT22;5263;48.680;9.004;2024-03-23T04:38:20;9.90;99.90
10433;DHT22;5263;48.680;9.004;2024-03-23T04:40:57;9.80;99.90
10433;DHT22;5263;48.680;9.004;2024-03-23T04:43:23;9.90;99.90
10433;DHT22;5263;48.680;9.004;2024-03-23T04:45:49;9.90;99.90
10433;DHT22;5263;48.680;9.004;2024-03-23T04:48:14;9.90;99.90
10433;DHT22;5263;48.680;9.004;2024-03-23T04:50:40;9.90;99.90
10433;DHT22;5263;48.680;9.004;2024-03-23T04:53:06;9.90;99.90
10433;DHT22;5263;48.680;9.004;2024-03-23T04:55:32;9.90;99.90
10433;DHT22;5263;48.680;9.004;2024-03-23T04:57:58;9.80;99.90
10433;DHT22;5263;48.680;9.004;2024-03-23T05:00:23;9.70;99.90
10433;DHT22;5263;48.680;9.004;2024-03-23T05:02:49;9.80;99.90
10433;DHT22;5263;48.680;9.004;2024-03-23T05:05:14;9.80;99.90
10433;DHT22;5263;48.680;9.004;2024-03-23T05:07:40;9.70;99.90
10433;DHT22;5263;48.680;9.004;2024-03-23T05:10:09;9.60;99.90
10433;DHT22;5263;48.680;9.004;2024-03-23T05:12:37;9.60;99.90
10433;DHT22;5263;48.680;9.004;2024-03-23T05:15:03;9.50;99.90
10433;DHT22;5263;48.680;9.004;2024-03-23T05:17:29;9.50;99.90
10433;DHT22;5263;48.680;9.004;2024-03-23T05:19:55;9.50;99.90
10433;DHT22;5263;48.680;9.004;2024-03-23T05:22:20;9.40;99.90
10433;DHT22;5263;48.680;9.004;2024-03-23T05:24:46;9.40;99.90
10433;DHT22;5263;48.680;9.004;2024-03-23T05:27:12;9.30;99.90
10433;DHT22;5263;48.680;9.004;2024-03-23T05:29:37;9.30;99.90
10433;DHT22;5263;48.680;9.004;2024-03-23T05:32:03;9.30;99.90
10433;DHT22;5263;48.680;9.004;2024-03-23T05:34:29;9.20;99.90
10433;DHT22;5263;48.680;9.004;2024-03-23T05:36:54;9.20;99.90
10433;DHT22;5263;48.680;9.004;2024-03-23T05:39:20;9.10;99.90
10433;DHT22;5263;48.680;9.004;2024-03-23T05:41:48;9.10;99.90
10433;DHT22;5263;48.680;9.004;2024-03-23T05:44:13;9.10;99.90
10433;DHT22;5263;48.680;9.004;2024-03-23T05:46:40;9.00;99.90
10433;DHT22;5263;48.680;9.004;2024-03-23T05:49:06;9.10;99.90
10433;DHT22;5263;48.680;9.004;2024-03-23T05:51:31;8.90;99.90
10433;DHT22;5263;48.680;9.004;2024-03-23T05:53:57;9.00;99.90
10433;DHT22;5263;48.680;9.004;2024-03-23T05:56:23;9.00;99.90
10433;DHT22;5263;48.680;9.004;2024-03-23T05:58:48;8.80;99.90
10433;DHT22;5263;48.680;9.004;2024-03-23T06:01:14;8.80;99.90
10433;DHT22;5263;48.680;9.004;2024-03-23T06:03:39;8.80;99.90
10433;DHT22;5263;48.680;9.004;2024-03-23T06:06:05;8.70;99.90
10433;DHT22;5263;48.680;9.004;2024-03-23T06:08:35;8.70;99.90
10433;DHT22;5263;48.680;9.004;2024-03-23T06:11:01;8.60;99.90
10433;DHT22;5263;48.680;9.004;2024-03-23T06:13:26;8.60;99.90
10433;DHT22;5263;48.680;9.004;2024-03-23T06:15:55;8.60;99.90
10433;DHT22;5263;48.680;9.004;2024-03-23T06:18:21;8.50;99.90
10433;DHT22;5263;48.680;9.004;2024-03-23T06:20:46;8.40;99.90
10433;DHT22;5263;48.680;9.004;2024-03-23T06:23:12;8.40;99.90
10433;DHT22;5263;48.680;9.004;2024-03-23T06:25:38;8.30;99.90
10433;DHT22;5263;48.680;9.004;2024-03-23T06:28:04;8.30;99.90
10433;DHT22;5263;48.680;9.004;2024-03-23T06:30:30;8.20;99.90
10433;DHT22;5263;48.680;9.004;2024-03-23T06:32:57;8.20;99.90
10433;DHT22;5263;48.680;9.004;2024-03-23T06:35:23;8.20;99.90
10433;DHT22;5263;48.680;9.004;2024-03-23T06:37:48;8.10;99.90
10433;DHT22;5263;48.680;9.004;2024-03-23T06:40:14;8.10;99.90
10433;DHT22;5263;48.680;9.004;2024-03-23T06:42:40;8.00;99.90
10433;DHT22;5263;48.680;9.004;2024-03-23T06:45:06;8.00;99.90
10433;DHT22;5263;48.680;9.004;2024-03-23T06:47:31;8.10;99.90
10433;DHT22;5263;48.680;9.004;2024-03-23T06:49:58;8.00;99.90
10433;DHT22;5263;48.680;9.004;2024-03-23T06:52:24;8.00;99.90
10433;DHT22;5263;48.680;9.004;2024-03-23T06:54:50;7.90;99.90
10433;DHT22;5263;48.680;9.004;2024-03-23T06:57:15;8.00;99.90
10433;DHT22;5263;48.680;9.004;2024-03-23T06:59:41;7.90;99.90
10433;DHT22;5263;48.680;9.004;2024-03-23T07:02:06;7.90;99.90
10433;DHT22;5263;48.680;9.004;2024-03-23T07:04:34;7.90;99.90
10433;DHT22;5263;48.680;9.004;2024-03-23T07:07:00;7.80;99.90
10433;DHT22;5263;48.680;9.004;2024-03-23T07:09:30;7.90;99.90
10433;DHT22;5263;48.680;9.004;2024-03-23T07:11:59;7.90;99.90
10433;DHT22;5263;48.680;9.004;2024-03-23T07:14:24;8.00;99.90
10433;DHT22;5263;48.680;9.004;2024-03-23T07:16:50;8.10;99.90
10433;DHT22;5263;48.680;9.004;2024-03-23T07:19:17;8.10;99.90
10433;DHT22;5263;48.680;9.004;2024-03-23T07:21:43;8.10;99.90
10433;DHT22;5263;48.680;9.004;2024-03-23T07:24:09;8.00;99.90
10433;DHT22;5263;48.680;9.004;2024-03-23T07:26:35;8.10;99.90
10433;DHT22;5263;48.680;9.004;2024-03-23T07:29:00;8.20;99.90
10433;DHT22;5263;48.680;9.004;2024-03-23T07:31:26;8.00;99.90
10433;DHT22;5263;48.680;9.004;2024-03-23T07:33:51;7.90;99.90
10433;DHT22;5263;48.680;9.004;2024-03-23T07:36:17;7.80;99.90
10433;DHT22;5263;48.680;9.004;2024-03-23T07:38:43;7.80;99.90
10433;DHT22;5263;48.680;9.004;2024-03-23T07:41:19;7.70;99.90
10433;DHT22;5263;48.680;9.004;2024-03-23T07:43:46;7.60;99.90
10433;DHT22;5263;48.680;9.004;2024-03-23T07:46:13;7.60;99.90
10433;DHT22;5263;48.680;9.004;2024-03-23T07:48:39;7.70;99.90
10433;DHT22;5263;48.680;9.004;2024-03-23T07:51:09;7.70;99.90
10433;DHT22;5263;48.680;9.004;2024-03-23T07:53:36;7.60;99.90
10433;DHT22;5263;48.680;9.004;2024-03-23T07:56:04;7.70;99.90
10433;DHT22;5263;48.680;9.004;2024-03-23T07:58:30;7.70;99.90
10433;DHT22;5263;48.680;9.004;2024-03-23T08:01:02;7.70;99.90
10433;DHT22;5263;48.680;9.004;2024-03-23T08:03:28;7.50;99.90
10433;DHT22;5263;48.680;9.004;2024-03-23T08:05:54;7.60;99.90
10433;DHT22;5263;48.680;9.004;2024-03-23T08:08:19;7.50;99.90
10433;DHT22;5263;48.680;9.004;2024-03-23T08:10:49;7.40;99.90
10433;DHT22;5263;48.680;9.004;2024-03-23T08:13:15;7.50;99.90
10433;DHT22;5263;48.680;9.004;2024-03-23T08:15:40;7.40;99.90
10433;DHT22;5263;48.680;9.004;2024-03-23T08:18:06;7.50;99.90
10433;DHT22;5263;48.680;9.004;2024-03-23T08:20:32;7.50;99.90
10433;DHT22;5263;48.680;9.004;2024-03-23T08:22:57;7.50;99.90
10433;DHT22;5263;48.680;9.004;2024-03-23T08:25:23;7.60;99.90
10433;DHT22;5263;48.680;9.004;2024-03-23T08:27:48;7.70;99.90
10433;DHT22;5263;48.680;9.004;2024-03-23T08:30:14;7.70;99.90
10433;DHT22;5263;48.680;9.004;2024-03-23T08:32:40;7.90;99.90
10433;DHT22;5263;48.680;9.004;2024-03-23T08:35:06;7.80;99.90
10433;DHT22;5263;48.680;9.004;2024-03-23T08:37:32;7.90;99.90
10433;DHT22;5263;48.680;9.004;2024-03-23T08:39:58;8.00;99.90
10433;DHT22;5263;48.680;9.004;2024-03-23T08:42:24;7.80;99.90
10433;DHT22;5263;48.680;9.004;2024-03-23T08:44:50;7.80;99.90
10433;DHT22;5263;48.680;9.004;2024-03-23T08:47:16;7.80;99.90
10433;DHT22;5263;48.680;9.004;2024-03-23T08:49:41;8.00;99.90
10433;DHT22;5263;48.680;9.004;2024-03-23T08:52:07;8.10;99.90
10433;DHT22;5263;48.680;9.004;2024-03-23T08:54:33;8.10;99.90
10433;DHT22;5263;48.680;9.004;2024-03-23T08:56:59;7.80;99.90
10433;DHT22;5263;48.680;9.004;2024-03-23T08:59:25;7.70;99.90
10433;DHT22;5263;48.680;9.004;2024-03-23T09:01:51;7.80;99.90
10433;DHT22;5263;48.680;9.004;2024-03-23T09:04:16;7.60;99.90
10433;DHT22;5263;48.680;9.004;2024-03-23T09:06:44;7.30;99.90
10433;DHT22;5263;48.680;9.004;2024-03-23T09:09:10;7.10;99.90
10433;DHT22;5263;48.680;9.004;2024-03-23T09:11:36;6.90;99.90
10433;DHT22;5263;48.680;9.004;2024-03-23T09:14:03;7.10;99.90
10433;DHT22;5263;48.680;9.004;2024-03-23T09:16:29;7.30;99.90
10433;DHT22;5263;48.680;9.004;2024-03-23T09:18:54;7.50;99.90
10433;DHT22;5263;48.680;9.004;2024-03-23T09:21:20;7.70;99.90
10433;DHT22;5263;48.680;9.004;2024-03-23T09:23:45;7.90;99.90
10433;DHT22;5263;48.680;9.004;2024-03-23T09:26:11;8.00;99.90
10433;DHT22;5263;48.680;9.004;2024-03-23T09:28:37;8.30;99.90
10433;DHT22;5263;48.680;9.004;2024-03-23T09:31:03;8.60;99.90
10433;DHT22;5263;48.680;9.004;2024-03-23T09:33:29;8.50;99.90
10433;DHT22;5263;48.680;9.004;2024-03-23T09:35:55;8.40;99.90
10433;DHT22;5263;48.680;9.004;2024-03-23T09:38:22;8.20;99.90
10433;DHT22;5263;48.680;9.004;2024-03-23T09:40:49;8.10;99.90
10433;DHT22;5263;48.680;9.004;2024-03-23T09:43:15;8.20;99.90
10433;DHT22;5263;48.680;9.004;2024-03-23T09:45:41;8.30;99.90
10433;DHT22;5263;48.680;9.004;2024-03-23T09:48:08;8.40;99.90
10433;DHT22;5263;48.680;9.004;2024-03-23T09:50:40;8.40;99.90
10433;DHT22;5263;48.680;9.004;2024-03-23T09:53:08;8.40;99.90
10433;DHT22;5263;48.680;9.004;2024-03-23T09:55:35;8.40;99.90
10433;DHT22;5263;48.680;9.004;2024-03-23T09:58:04;8.20;99.90
10433;DHT22;5263;48.680;9.004;2024-03-23T10:00:34;8.00;99.90
10433;DHT22;5263;48.680;9.004;2024-03-23T10:03:00;8.10;99.90
10433;DHT22;5263;48.680;9.004;2024-03-23T10:05:29;8.20;99.90
10433;DHT22;5263;48.680;9.004;2024-03-23T10:07:57;8.40;99.90
10433;DHT22;5263;48.680;9.004;2024-03-23T10:10:25;8.60;99.90
10433;DHT22;5263;48.680;9.004;2024-03-23T10:12:51;8.60;99.90
10433;DHT22;5263;48.680;9.004;2024-03-23T10:15:21;8.60;99.90
10433;DHT22;5263;48.680;9.004;2024-03-23T10:17:47;8.50;99.90
10433;DHT22;5263;48.680;9.004;2024-03-23T10:20:13;8.70;99.90
10433;DHT22;5263;48.680;9.004;2024-03-23T10:22:39;8.80;99.90
10433;DHT22;5263;48.680;9.004;2024-03-23T10:25:09;8.90;99.90
10433;DHT22;5263;48.680;9.004;2024-03-23T10:27:35;8.70;99.90
10433;DHT22;5263;48.680;9.004;2024-03-23T10:30:11;8.60;99.90
10433;DHT22;5263;48.680;9.004;2024-03-23T10:32:38;8.60;99.90
10433;DHT22;5263;48.680;9.004;2024-03-23T10:35:17;8.80;99.90
10433;DHT22;5263;48.680;9.004;2024-03-23T10:37:51;9.00;99.90
10433;DHT22;5263;48.680;9.004;2024-03-23T10:40:17;8.90;99.90
10433;DHT22;5263;48.680;9.004;2024-03-23T10:42:46;8.70;99.90
10433;DHT22;5263;48.680;9.004;2024-03-23T10:45:12;8.40;99.90
10433;DHT22;5263;48.680;9.004;2024-03-23T10:47:38;8.00;99.90
10433;DHT22;5263;48.680;9.004;2024-03-23T10:50:04;7.40;99.90
10433;DHT22;5263;48.680;9.004;2024-03-23T10:52:32;5.90;99.90
10433;DHT22;5263;48.680;9.004;2024-03-23T10:54:59;5.40;99.90
10433;DHT22;5263;48.680;9.004;2024-03-23T10:57:44;4.90;99.90
10433;DHT22;5263;48.680;9.004;2024-03-23T11:00:11;4.40;99.90
10433;DHT22;5263;48.680;9.004;2024-03-23T11:02:37;4.30;99.90
10433;DHT22;5263;48.680;9.004;2024-03-23T11:07:52;4.60;99.90
10433;DHT22;5263;48.680;9.004;2024-03-23T11:10:27;4.70;99.90
10433;DHT22;5263;48.680;9.004;2024-03-23T11:12:54;5.00;99.90
10433;DHT22;5263;48.680;9.004;2024-03-23T11:15:20;5.60;99.90
10433;DHT22;5263;48.680;9.004;2024-03-23T11:18:06;5.80;99.90
10433;DHT22;5263;48.680;9.004;2024-03-23T11:20:35;6.00;99.90
10433;DHT22;5263;48.680;9.004;2024-03-23T11:23:01;6.00;99.90
10433;DHT22;5263;48.680;9.004;2024-03-23T11:25:27;6.00;99.90
10433;DHT22;5263;48.680;9.004;2024-03-23T11:27:57;6.20;99.90
10433;DHT22;5263;48.680;9.004;2024-03-23T11:30:28;6.50;99.90
10433;DHT22;5263;48.680;9.004;2024-03-23T11:32:55;6.40;99.90
10433;DHT22;5263;48.680;9.004;2024-03-23T11:35:25;7.00;99.90
10433;DHT22;5263;48.680;9.004;2024-03-23T11:38:14;7.20;99.90
10433;DHT22;5263;48.680;9.004;2024-03-23T11:40:40;7.60;99.90
10433;DHT22;5263;48.680;9.004;2024-03-23T11:43:11;7.60;99.90
10433;DHT22;5263;48.680;9.004;2024-03-23T11:45:39;7.60;99.90
10433;DHT22;5263;48.680;9.004;2024-03-23T11:48:12;7.30;99.90
10433;DHT22;5263;48.680;9.004;2024-03-23T11:50:40;7.30;99.90
10433;DHT22;5263;48.680;9.004;2024-03-23T11:53:14;7.20;99.90
10433;DHT22;5263;48.680;9.004;2024-03-23T11:55:51;7.10;99.90
10433;DHT22;5263;48.680;9.004;2024-03-23T11:58:18;7.20;99.90
10433;DHT22;5263;48.680;9.004;2024-03-23T12:00:58;7.40;99.90
10433;DHT22;5263;48.680;9.004;2024-03-23T12:03:25;7.70;99.90
10433;DHT22;5263;48.680;9.004;2024-03-23T12:05:52;7.90;99.90
10433;DHT22;5263;48.680;9.004;2024-03-23T12:11:11;8.40;99.90
10433;DHT22;5263;48.680;9.004;2024-03-23T12:13:38;8.40;99.90
10433;DHT22;5263;48.680;9.004;2024-03-23T12:16:11;8.00;99.90
10433;DHT22;5263;48.680;9.004;2024-03-23T12:18:39;7.90;99.90
10433;DHT22;5263;48.680;9.004;2024-03-23T12:21:05;7.90;99.90
10433;DHT22;5263;48.680;9.004;2024-03-23T12:23:31;7.70;99.90
10433;DHT22;5263;48.680;9.004;2024-03-23T12:25:57;7.70;99.90
10433;DHT22;5263;48.680;9.004;2024-03-23T12:28:23;7.70;99.90
10433;DHT22;5263;48.680;9.004;2024-03-23T12:30:48;7.50;99.90
10433;DHT22;5263;48.680;9.004;2024-03-23T12:33:14;7.50;99.90
10433;DHT22;5263;48.680;9.004;2024-03-23T12:35:40;7.40;99.90
10433;DHT22;5263;48.680;9.004;2024-03-23T12:38:05;7.70;99.90
10433;DHT22;5263;48.680;9.004;2024-03-23T12:40:31;9.30;99.90
10433;DHT22;5263;48.680;9.004;2024-03-23T12:42:56;8.50;99.90
10433;DHT22;5263;48.680;9.004;2024-03-23T12:45:22;8.20;99.90
10433;DHT22;5263;48.680;9.004;2024-03-23T12:47:48;8.10;99.90
10433;DHT22;5263;48.680;9.004;2024-03-23T12:50:13;7.90;99.90
10433;DHT22;5263;48.680;9.004;2024-03-23T12:52:39;7.90;99.90
10433;DHT22;5263;48.680;9.004;2024-03-23T12:55:05;8.00;99.90
10433;DHT22;5263;48.680;9.004;2024-03-23T12:57:31;9.70;99.90
10433;DHT22;5263;48.680;9.004;2024-03-23T12:59:57;9.10;99.90
10433;DHT22;5263;48.680;9.004;2024-03-23T13:02:23;8.90;99.90
10433;DHT22;5263;48.680;9.004;2024-03-23T13:04:55;8.70;99.90
10433;DHT22;5263;48.680;9.004;2024-03-23T13:07:22;9.00;99.90
10433;DHT22;5263;48.680;9.004;2024-03-23T13:09:52;9.50;99.90
10433;DHT22;5263;48.680;9.004;2024-03-23T13:12:21;9.10;99.90
10433;DHT22;5263;48.680;9.004;2024-03-23T13:14:46;8.80;99.90
10433;DHT22;5263;48.680;9.004;2024-03-23T13:17:12;8.00;99.90
10433;DHT22;5263;48.680;9.004;2024-03-23T13:19:38;7.60;99.90
10433;DHT22;5263;48.680;9.004;2024-03-23T13:22:04;7.20;99.90
10433;DHT22;5263;48.680;9.004;2024-03-23T13:24:30;6.60;99.90
10433;DHT22;5263;48.680;9.004;2024-03-23T13:26:57;6.40;99.90
10433;DHT22;5263;48.680;9.004;2024-03-23T13:29:23;7.10;99.90
10433;DHT22;5263;48.680;9.004;2024-03-23T13:31:50;8.90;99.90
10433;DHT22;5263;48.680;9.004;2024-03-23T13:34:17;10.10;99.90
10433;DHT22;5263;48.680;9.004;2024-03-23T13:36:46;11.60;99.90
10433;DHT22;5263;48.680;9.004;2024-03-23T13:39:13;12.20;99.90
10433;DHT22;5263;48.680;9.004;2024-03-23T13:41:44;11.90;99.90
10433;DHT22;5263;48.680;9.004;2024-03-23T13:44:13;11.00;99.90
10433;DHT22;5263;48.680;9.004;2024-03-23T13:46:40;12.20;99.90
10433;DHT22;5263;48.680;9.004;2024-03-23T13:49:28;11.50;99.90
10433;DHT22;5263;48.680;9.004;2024-03-23T13:51:55;10.40;99.90
10433;DHT22;5263;48.680;9.004;2024-03-23T13:54:21;10.90;99.90
10433;DHT22;5263;48.680;9.004;2024-03-23T13:56:55;11.80;99.90
10433;DHT22;5263;48.680;9.004;2024-03-23T13:59:21;11.90;99.90
10433;DHT22;5263;48.680;9.004;2024-03-23T14:01:48;11.30;99.90
10433;DHT22;5263;48.680;9.004;2024-03-23T14:04:14;9.80;99.90
10433;DHT22;5263;48.680;9.004;2024-03-23T14:06:42;7.90;99.90
10433;DHT22;5263;48.680;9.004;2024-03-23T14:09:07;7.20;99.90
10433;DHT22;5263;48.680;9.004;2024-03-23T14:11:35;7.00;99.90
10433;DHT22;5263;48.680;9.004;2024-03-23T14:14:01;7.60;99.90
10433;DHT22;5263;48.680;9.004;2024-03-23T14:16:27;8.50;99.90
10433;DHT22;5263;48.680;9.004;2024-03-23T14:18:53;9.00;99.90
10433;DHT22;5263;48.680;9.004;2024-03-23T14:21:18;9.90;99.90
10433;DHT22;5263;48.680;9.004;2024-03-23T14:23:44;9.30;99.90
10433;DHT22;5263;48.680;9.004;2024-03-23T14:26:09;8.30;99.90
10433;DHT22;5263;48.680;9.004;2024-03-23T14:28:35;7.60;99.90
10433;DHT22;5263;48.680;9.004;2024-03-23T14:31:01;7.60;99.90
10433;DHT22;5263;48.680;9.004;2024-03-23T14:33:28;8.40;99.90
10433;DHT22;5263;48.680;9.004;2024-03-23T14:35:55;8.50;99.90
10433;DHT22;5263;48.680;9.004;2024-03-23T14:38:24;9.20;99.90
10433;DHT22;5263;48.680;9.004;2024-03-23T14:40:49;9.30;99.90
10433;DHT22;5263;48.680;9.004;2024-03-23T14:43:16;9.20;99.90
10433;DHT22;5263;48.680;9.004;2024-03-23T14:46:06;8.10;99.90
10433;DHT22;5263;48.680;9.004;2024-03-23T14:48:32;7.90;99.90
10433;DHT22;5263;48.680;9.004;2024-03-23T14:50:59;7.20;99.90
10433;DHT22;5263;48.680;9.004;2024-03-23T14:53:25;7.00;99.90
10433;DHT22;5263;48.680;9.004;2024-03-23T14:55:54;6.90;99.90
10433;DHT22;5263;48.680;9.004;2024-03-23T14:58:20;6.50;99.90
10433;DHT22;5263;48.680;9.004;2024-03-23T15:00:45;6.20;99.90
10433;DHT22;5263;48.680;9.004;2024-03-23T15:03:11;5.90;99.90
10433;DHT22;5263;48.680;9.004;2024-03-23T15:05:36;5.70;99.90
10433;DHT22;5263;48.680;9.004;2024-03-23T15:08:02;6.80;99.90
10433;DHT22;5263;48.680;9.004;2024-03-23T15:10:28;7.40;99.90
10433;DHT22;5263;48.680;9.004;2024-03-23T15:12:54;7.80;99.90
10433;DHT22;5263;48.680;9.004;2024-03-23T15:15:19;8.20;99.90
10433;DHT22;5263;48.680;9.004;2024-03-23T15:17:45;8.60;99.90
10433;DHT22;5263;48.680;9.004;2024-03-23T15:20:11;9.20;99.90
10433;DHT22;5263;48.680;9.004;2024-03-23T15:22:37;9.60;99.90
10433;DHT22;5263;48.680;9.004;2024-03-23T15:25:03;10.20;99.90
10433;DHT22;5263;48.680;9.004;2024-03-23T15:27:28;11.00;99.90
10433;DHT22;5263;48.680;9.004;2024-03-23T15:29:56;11.60;99.90
10433;DHT22;5263;48.680;9.004;2024-03-23T15:32:23;11.30;99.90
10433;DHT22;5263;48.680;9.004;2024-03-23T15:34:48;9.00;99.90
10433;DHT22;5263;48.680;9.004;2024-03-23T15:37:14;8.80;99.90
10433;DHT22;5263;48.680;9.004;2024-03-23T15:39:40;8.60;99.90
10433;DHT22;5263;48.680;9.004;2024-03-23T15:42:07;8.70;99.90
10433;DHT22;5263;48.680;9.004;2024-03-23T15:44:32;8.60;99.90
10433;DHT22;5263;48.680;9.004;2024-03-23T15:46:58;8.30;99.90
10433;DHT22;5263;48.680;9.004;2024-03-23T15:49:24;7.70;99.90
10433;DHT22;5263;48.680;9.004;2024-03-23T15:51:49;7.20;99.90
10433;DHT22;5263;48.680;9.004;2024-03-23T15:54:15;7.00;99.90
10433;DHT22;5263;48.680;9.004;2024-03-23T15:56:40;6.70;99.90
10433;DHT22;5263;48.680;9.004;2024-03-23T15:59:06;6.40;99.90
10433;DHT22;5263;48.680;9.004;2024-03-23T16:01:32;6.20;99.90
10433;DHT22;5263;48.680;9.004;2024-03-23T16:04:01;6.30;99.90
10433;DHT22;5263;48.680;9.004;2024-03-23T16:06:27;6.20;99.90
10433;DHT22;5263;48.680;9.004;2024-03-23T16:08:53;6.10;99.90
10433;DHT22;5263;48.680;9.004;2024-03-23T16:11:18;5.60;99.90
10433;DHT22;5263;48.680;9.004;2024-03-23T16:13:44;5.50;99.90
10433;DHT22;5263;48.680;9.004;2024-03-23T16:16:11;5.60;99.90
10433;DHT22;5263;48.680;9.004;2024-03-23T16:18:38;5.70;99.90
10433;DHT22;5263;48.680;9.004;2024-03-23T16:21:07;5.80;99.90
10433;DHT22;5263;48.680;9.004;2024-03-23T16:23:33;5.90;99.90
10433;DHT22;5263;48.680;9.004;2024-03-23T16:25:59;6.00;99.90
10433;DHT22;5263;48.680;9.004;2024-03-23T16:28:34;6.20;99.90
10433;DHT22;5263;48.680;9.004;2024-03-23T16:31:04;6.20;99.90
10433;DHT22;5263;48.680;9.004;2024-03-23T16:33:34;6.30;99.90
10433;DHT22;5263;48.680;9.004;2024-03-23T16:36:08;6.30;99.90
10433;DHT22;5263;48.680;9.004;2024-03-23T16:38:41;6.50;99.90
10433;DHT22;5263;48.680;9.004;2024-03-23T16:41:11;6.50;99.90
10433;DHT22;5263;48.680;9.004;2024-03-23T16:43:43;6.60;99.90
10433;DHT22;5263;48.680;9.004;2024-03-23T16:46:10;6.50;99.90
10433;DHT22;5263;48.680;9.004;2024-03-23T16:48:39;6.40;99.90
10433;DHT22;5263;48.680;9.004;2024-03-23T16:51:05;6.50;99.90
10433;DHT22;5263;48.680;9.004;2024-03-23T16:53:32;6.30;99.90
10433;DHT22;5263;48.680;9.004;2024-03-23T16:55:58;6.20;99.90